Latest Coastal Weather Observations for Friendly Beaches

IDT60701

Issued at 5:03 am EDT Thursday 19 January 2017 (issued every 10 minutes, with the page automatically refreshed every 10 minutes)

About coastal observations | Map of coastal stations | Coastal observations for TAS | Marine services | Other Formats
Station Details ID: 092114 Name: FRIENDLY BEACHES Lat: -42.00 Lon: 148.28 Height: 55.0 m
Data from the previous 72 hours. | See also: Recent months at Friendly Beaches
Date/Time
EDT
Temp
°C
Wind Pressure Rain since
9am
mm
Weather Cloud Vis
km
Sea
Height
m
Swell
Dir  Spd
kts
Gust
kts
hPa Trend Height
m
Period
s
Dir
19/04:30am 9.1 W 5 7 1016.0 - 0.0 - - - - - - -
19/04:00am 9.4 WSW 5 7 1016.0 - 0.0 - - - - - - -
19/03:30am 9.3 WSW 5 7 1016.2 - 0.0 - - - - - - -
19/03:00am 9.7 WSW 6 8 1016.2 - 0.0 - - - - - - -
19/02:30am 10.0 WSW 6 7 1016.2 - 0.0 - - - - - - -
19/02:00am 9.8 W 4 5 1016.3 - 0.0 - - - - - - -
19/01:30am 10.3 W 4 5 1016.3 - 0.0 - - - - - - -
19/01:00am 10.7 W 3 4 1016.1 - 0.0 - - - - - - -
19/12:30am 11.7 WSW 6 9 1016.0 - 0.0 - - - - - - -
19/12:00am 12.3 WSW 5 9 1015.8 - 0.0 - - - - - - -
 
Date/Time
EDT
Temp
°C
Wind Pressure Rain since
9am
mm
Weather Cloud Vis
km
Sea
Height
m
Swell
Dir  Spd
kts
Gust
kts
hPa Trend Height
m
Period
s
Dir
18/11:30pm 13.1 SW 7 12 1015.6 - 0.0 - - - - - - -
18/11:00pm 13.6 SW 7 12 1015.7 - 0.0 - - - - - - -
18/10:30pm 13.6 SSW 9 16 1015.5 - 0.0 - - - - - - -
18/10:00pm 13.5 S 9 15 1015.2 - 0.0 - - - - - - -
18/09:30pm 13.9 S 12 22 1014.6 - 0.0 - - - - - - -
18/09:00pm 14.0 S 9 16 1014.4 - 0.0 - - - - - - -
18/08:30pm 14.5 S 9 13 1014.1 - 0.0 - - - - - - -
18/08:00pm 15.6 S 11 17 1013.1 - 0.0 - - - - - - -
18/07:30pm 17.0 S 9 15 1012.8 - 0.0 - - - - - - -
18/07:00pm 18.3 S 10 19 1012.0 - 0.0 - - - - - - -
18/06:30pm 19.0 S 10 17 1011.6 - 0.0 - - - - - - -
18/06:00pm 19.2 S 13 21 1011.1 - 0.0 - - - - - - -
18/05:30pm 20.3 S 12 19 1010.9 - 0.0 - - - - - - -
18/05:00pm 20.4 SSW 10 18 1010.5 - 0.0 - - - - - - -
18/04:30pm 21.3 SSW 11 18 1010.2 - 0.0 - - - - - - -
18/04:00pm 21.5 SSW 14 21 1009.8 - 0.0 - - - - - - -
18/03:30pm 20.5 SSW 12 23 1009.6 - 0.0 - - - - - - -
18/03:00pm 21.0 SSW 13 21 1009.3 - 0.0 - - - - - - -
18/02:30pm 21.2 SSW 14 25 1009.0 - 0.0 - - - - - - -
18/02:00pm 21.3 SSW 10 18 1008.9 - 0.0 - - - - - - -
18/01:30pm 19.2 SSW 11 17 1008.6 - 0.0 - - - - - - -
18/01:00pm 19.5 SW 11 23 1008.2 - 0.0 - - - - - - -
18/12:30pm 20.0 SW 12 22 1007.8 - 0.0 - - - - - - -
18/12:00pm 20.1 SSW 15 24 1007.3 - 0.0 - - - - - - -
18/11:52am 19.6 SSW 15 25 1007.2 - 0.0 - - - - - - -
18/11:30am 18.9 SSW 16 26 1007.1 - 0.0 - - - - - - -
18/11:08am 18.4 SW 15 25 1006.8 - 0.0 - - - - - - -
18/11:00am 18.0 SW 12 25 1006.5 - 0.0 - - - - - - -
18/10:30am 17.6 SW 12 22 1006.1 - 0.0 - - - - - - -
18/10:00am 17.1 WSW 13 21 1005.7 - 0.0 - - - - - - -
18/09:37am 16.7 WSW 15 26 1005.1 - 0.0 - - - - - - -
18/09:30am 16.6 WSW 13 23 1005.3 - 0.0 - - - - - - -
18/09:00am 16.2 WSW 12 19 1005.1 - 1.2 - - - - - - -
18/08:44am 15.8 WSW 15 25 1004.8 - 1.2 - - - - - - -
18/08:30am 15.8 WSW 14 24 1004.6 - 1.2 - - - - - - -
18/08:00am 15.6 WSW 13 24 1004.2 - 1.2 - - - - - - -
18/07:30am 15.4 WSW 12 25 1003.9 - 1.2 - - - - - - -
18/07:00am 14.8 WSW 13 21 1003.4 - 1.2 - - - - - - -
18/06:48am 15.2 WSW 12 23 1003.2 - 1.2 - - - - - - -
18/06:30am 14.8 SW 6 11 1003.0 - 1.2 - - - - - - -
18/06:00am 15.3 WSW 9 14 1002.4 - 1.2 - - - - - - -
18/05:30am 14.7 W 4 11 1002.2 - 1.2 - - - - - - -
18/05:00am 14.8 SW 7 12 1001.3 - 1.2 - - - - - - -
18/04:30am 14.6 SSW 8 14 1001.2 - 1.2 - - - - - - -
18/04:00am 15.7 SW 8 14 1000.5 - 1.2 - - - - - - -
18/03:30am 16.0 W 7 11 1000.4 - 1.2 - - - - - - -
18/03:00am 16.1 W 7 12 1000.4 - 1.2 - - - - - - -
18/02:30am 15.6 WNW 3 6 1000.3 - 1.2 - - - - - - -
18/02:00am 15.7 WSW 3 6 1000.6 - 1.2 - - - - - - -
18/01:30am 15.6 SW 4 6 1000.7 - 1.2 - - - - - - -
18/01:00am 15.7 W 4 6 1001.1 - 1.2 - - - - - - -
18/12:30am 15.7 WSW 3 4 1001.0 - 1.2 - - - - - - -
18/12:00am 15.8 SSW 3 6 1001.8 - 1.2 - - - - - - -
 
Date/Time
EDT
Temp
°C
Wind Pressure Rain since
9am
mm
Weather Cloud Vis
km
Sea
Height
m
Swell
Dir  Spd
kts
Gust
kts
hPa Trend Height
m
Period
s
Dir
17/11:30pm 15.9 SSW 4 5 1002.1 - 1.2 - - - - - - -
17/11:00pm 16.1 SSW 3 6 1002.1 - 1.2 - - - - - - -
17/10:30pm 16.3 SSE 3 5 1001.5 - 1.2 - - - - - - -
17/10:00pm 16.4 SE 3 5 1002.2 - 1.2 - - - - - - -
17/09:30pm 16.2 NNE 1 3 1002.3 - 1.2 - - - - - - -
17/09:00pm 16.5 NNE 3 4 1002.0 - 1.2 Recent precip. - - - - - -
17/08:30pm 16.7 CALM 0 0 1002.4 - 0.8 - - - - - - -
17/08:00pm 16.9 E 4 5 1001.9 - 0.6 - - - - - - -
17/07:30pm 17.5 SSE 4 7 1002.6 - 0.0 - - - - - - -
17/07:00pm 18.4 SE 4 6 1002.2 - 0.0 - - - - - - -
17/06:30pm 18.9 SSE 3 5 1002.2 - 0.0 - - - - - - -
17/06:00pm 19.3 SSE 5 7 1002.3 - 0.0 - - - - - - -
17/05:30pm 19.7 SSE 7 10 1002.0 - 0.0 - - - - - - -
17/05:00pm 20.8 SE 8 10 1002.1 - 0.0 - - - - - - -
17/04:30pm 22.1 SSE 8 11 1002.0 - 0.0 - - - - - - -
17/04:00pm 22.9 SE 7 10 1002.0 - 0.0 - - - - - - -
17/03:30pm 22.4 ESE 7 10 1002.0 - 0.0 - - - - - - -
17/03:00pm 23.6 SE 9 12 1002.2 - 0.0 - - - - - - -
17/02:30pm 23.5 ESE 10 13 1002.1 - 0.0 - - - - - - -
17/02:00pm 23.5 ESE 11 14 1002.5 - 0.0 - - - - - - -
17/01:30pm 24.1 ESE 11 14 1002.7 - 0.0 - - - - - - -
17/01:00pm 23.5 ESE 9 13 1003.0 - 0.0 - - - - - - -
17/12:30pm 22.9 E 9 12 1003.2 - 0.0 - - - - - - -
17/12:00pm 22.7 E 9 12 1003.6 - 0.0 - - - - - - -
17/11:30am 22.3 ENE 9 12 1003.9 - 0.0 - - - - - - -
17/11:00am 23.8 NE 10 15 1004.1 - 0.0 - - - - - - -
17/10:30am 25.9 NW 7 12 1003.8 - 0.0 - - - - - - -
17/10:00am 25.3 WNW 6 11 1004.5 - 0.0 - - - - - - -
17/09:30am 23.6 WSW 5 8 1004.6 - 0.0 - - - - - - -
17/09:00am 21.2 WNW 4 7 1004.9 - 0.0 - - - - - - -
17/08:30am 18.2 CALM 0 2 1005.1 - 0.0 - - - - - - -
17/08:00am 17.5 NNE 2 5 1004.8 - 0.0 - - - - - - -
17/07:30am 16.5 NE 3 5 1004.5 - 0.0 - - - - - - -
17/07:00am 16.3 E 1 3 1004.0 - 0.0 - - - - - - -
17/06:30am 16.4 S 3 5 1004.0 - 0.0 - - - - - - -
17/06:00am 15.3 S 4 7 1003.6 - 0.0 - - - - - - -
17/05:30am 14.6 S 4 6 1003.4 - 0.0 - - - - - - -
17/05:00am 15.3 SSE 2 3 1003.5 - 0.0 - - - - - - -
17/04:30am 16.0 S 2 5 1003.4 - 0.0 - - - - - - -
17/04:00am 16.7 SSW 3 5 1003.6 - 0.0 - - - - - - -
17/03:30am 19.3 WNW 7 11 1003.6 - 0.0 - - - - - - -
17/03:00am 18.8 WNW 4 8 1003.8 - 0.0 - - - - - - -
17/02:30am 19.3 WNW 6 10 1004.1 - 0.0 - - - - - - -
17/02:00am 19.3 WNW 7 13 1004.6 - 0.0 - - - - - - -
17/01:30am 19.2 NW 8 13 1004.8 - 0.0 - - - - - - -
17/01:00am 18.9 NW 5 10 1005.4 - 0.0 - - - - - - -
17/12:30am 19.1 NW 6 12 1005.8 - 0.0 - - - - - - -
17/12:00am 19.7 WNW 8 13 1006.1 - 0.0 - - - - - - -
 
Date/Time
EDT
Temp
°C
Wind Pressure Rain since
9am
mm
Weather Cloud Vis
km
Sea
Height
m
Swell
Dir  Spd
kts
Gust
kts
hPa Trend Height
m
Period
s
Dir
16/11:30pm 19.6 WNW 8 13 1006.2 - 0.0 - - - - - - -
16/11:00pm 20.3 W 6 11 1006.2 - 0.0 - - - - - - -
16/10:30pm 19.5 WNW 5 13 1006.0 - 0.0 - - - - - - -
16/10:00pm 18.5 NW 3 6 1005.8 - 0.0 - - - - - - -
16/09:30pm 18.2 WNW 3 4 1006.0 - 0.0 - - - - - - -
16/09:00pm 17.6 W 2 6 1005.9 - 0.0 - - - - - - -
16/08:30pm 17.5 CALM 0 0 1005.9 - 0.0 - - - - - - -
16/08:00pm 18.7 CALM 0 0 1005.9 - 0.0 - - - - - - -
16/07:30pm 19.7 E 1 4 1005.8 - 0.0 - - - - - - -
16/07:00pm 19.8 E 4 6 1006.0 - 0.0 - - - - - - -
16/06:30pm 20.3 ENE 5 8 1006.4 - 0.0 - - - - - - -
16/06:00pm 20.9 ENE 6 9 1006.8 - 0.0 - - - - - - -
16/05:30pm 21.2 ENE 8 11 1007.2 - 0.0 - - - - - - -
16/05:00pm 21.8 ENE 7 10 1007.7 - 0.0 - - - - - - -
16/04:30pm 21.6 ENE 8 11 1008.1 - 0.0 - - - - - - -
16/04:00pm 21.8 ENE 11 15 1008.4 - 0.0 - - - - - - -
16/03:30pm 22.1 ENE 11 15 1008.9 - 0.0 - - - - - - -
16/03:00pm 22.3 NE 11 17 1009.0 - 0.0 - - - - - - -
16/02:30pm 22.1 NE 12 18 1009.3 - 0.0 - - - - - - -
16/02:00pm 22.8 NE 11 17 1009.7 - 0.0 - - - - - - -
16/01:30pm 22.1 NE 12 17 1009.8 - 0.0 - - - - - - -
16/01:00pm 22.4 NE 10 15 1010.3 - 0.0 - - - - - - -
16/12:30pm 21.9 ENE 9 13 1010.5 - 0.0 - - - - - - -
16/12:00pm 20.9 ENE 8 12 1010.9 - 0.0 - - - - - - -
16/11:30am 20.3 E 7 10 1011.0 - 0.0 - - - - - - -
16/11:00am 20.7 ESE 7 9 1011.2 - 0.0 - - - - - - -
16/10:30am 19.5 E 6 9 1011.3 - 0.0 - - - - - - -
16/10:00am 19.1 E 5 7 1011.4 - 0.0 - - - - - - -
16/09:30am 18.6 E 5 6 1011.4 - 0.0 - - - - - - -
16/09:00am 18.0 E 2 4 1011.7 - 0.0 - - - - - - -
16/08:30am 16.3 WNW 3 5 1011.5 - 0.0 - - - - - - -
16/08:00am 15.1 W 3 4 1011.6 - 0.0 - - - - - - -
16/07:30am 13.8 W 3 5 1011.4 - 0.0 - - - - - - -
16/07:00am 12.8 W 4 6 1011.4 - 0.0 - - - - - - -
16/06:30am 11.4 W 3 4 1010.7 - 0.0 - - - - - - -
16/06:00am 11.1 WSW 4 5 1010.5 - 0.0 - - - - - - -
16/05:30am 11.5 W 4 7 1010.3 - 0.0 - - - - - - -

Other Formats:

Comma delimited format used in spreadsheet applications
http://www.bom.gov.au/fwo/IDT60701/IDT60701.94987.axf

JavaScript Object Notation format (JSON) in row-major order
http://www.bom.gov.au/fwo/IDT60701/IDT60701.94987.json